createdAt,value
2023-02-02T00:00:35.974Z,35.30
2023-02-02T00:04:12.034Z,35.30
2023-02-02T00:07:36.046Z,35.30
2023-02-02T00:11:06.883Z,35.30
2023-02-02T00:52:30.452Z,35.30
2023-02-02T00:56:18.484Z,35.30
2023-02-02T01:54:40.074Z,35.40
2023-02-02T02:14:35.117Z,35.30
2023-02-02T02:18:18.304Z,35.30
2023-02-02T02:22:05.176Z,35.30
2023-02-02T02:25:47.208Z,35.30
2023-02-02T02:29:41.247Z,35.30
2023-02-02T02:33:23.271Z,35.30
2023-02-02T02:36:53.301Z,35.30
2023-02-02T02:40:23.331Z,35.30
2023-02-02T02:43:47.359Z,35.30
2023-02-02T02:47:12.559Z,35.30
2023-02-02T02:50:48.587Z,35.20
2023-02-02T02:54:12.643Z,35.20
2023-02-02T02:57:59.481Z,35.20
2023-02-02T03:01:29.528Z,35.30
2023-02-02T03:04:59.538Z,35.30
2023-02-02T03:08:41.569Z,35.30
2023-02-02T03:12:11.603Z,35.30
2023-02-02T03:15:41.663Z,35.90
2023-02-02T03:19:13.636Z,35.90
2023-02-02T03:22:35.688Z,35.30
2023-02-02T03:26:11.718Z,35.30
2023-02-02T03:29:29.752Z,35.30
2023-02-02T03:32:53.780Z,35.30
2023-02-02T03:36:18.979Z,35.30
2023-02-02T03:39:47.832Z,35.30
2023-02-02T03:43:19.043Z,35.30
2023-02-02T03:46:47.891Z,35.30
2023-02-02T03:50:14.742Z,35.30
2023-02-02T03:53:41.948Z,35.30
2023-02-02T03:57:11.979Z,35.30
2023-02-02T04:00:48.010Z,34.90
2023-02-02T04:04:12.041Z,34.90
2023-02-02T04:07:36.073Z,35.00
2023-02-02T04:11:00.120Z,35.30
2023-02-02T04:14:25.309Z,35.50
2023-02-02T04:18:00.163Z,35.60
2023-02-02T04:21:25.380Z,35.90
2023-02-02T04:24:54.228Z,36.70
2023-02-02T04:28:19.431Z,36.10
2023-02-02T04:31:42.318Z,36.30
2023-02-02T04:35:06.318Z,36.30
2023-02-02T04:38:36.337Z,36.40
2023-02-02T04:42:00.366Z,36.40
2023-02-02T04:45:25.889Z,36.40
2023-02-02T04:48:54.426Z,36.40
2023-02-02T04:52:25.636Z,36.50
2023-02-02T04:55:54.522Z,36.50
2023-02-02T04:59:25.696Z,36.50
2023-02-02T05:02:49.848Z,36.50
2023-02-02T05:06:14.135Z,36.50
2023-02-02T05:09:48.662Z,36.60
2023-02-02T05:13:00.680Z,36.50
2023-02-02T05:16:19.901Z,36.60
2023-02-02T05:19:31.870Z,36.70
2023-02-02T05:22:37.907Z,36.60
2023-02-02T05:26:01.931Z,36.70
2023-02-02T05:29:18.436Z,36.60
2023-02-02T05:32:24.842Z,36.60
2023-02-02T05:35:38.010Z,36.70
2023-02-02T05:38:50.039Z,36.60
2023-02-02T05:42:18.906Z,36.70
2023-02-02T05:45:33.128Z,36.70
2023-02-02T05:49:01.005Z,36.80
2023-02-02T05:52:31.042Z,36.80
2023-02-02T06:02:50.510Z,36.80
2023-02-02T06:06:30.446Z,36.80
2023-02-02T06:10:08.056Z,36.90
2023-02-02T06:13:04.039Z,36.90
2023-02-02T06:16:22.461Z,36.90
2023-02-02T06:19:20.047Z,36.90
2023-02-02T06:22:20.428Z,36.90
2023-02-02T06:25:44.173Z,36.90
2023-02-02T06:29:13.101Z,36.90
2023-02-02T06:32:16.809Z,37.60
2023-02-02T06:38:46.559Z,37.00
2023-02-02T06:41:32.755Z,37.10
2023-02-02T06:44:31.303Z,37.10
2023-02-02T06:47:34.021Z,37.00
2023-02-02T06:53:42.729Z,37.10
2023-02-02T06:56:28.084Z,37.00
2023-02-02T06:59:18.222Z,37.10
2023-02-02T07:02:14.661Z,37.10
2023-02-02T07:05:22.026Z,37.00
2023-02-02T07:08:44.529Z,37.10
2023-02-02T07:11:30.397Z,37.10
2023-02-02T07:14:17.146Z,37.10
2023-02-02T07:17:45.054Z,37.10
2023-02-02T07:20:32.576Z,37.00
2023-02-02T07:23:30.708Z,37.10
2023-02-02T07:26:29.393Z,37.10
2023-02-02T07:29:18.842Z,37.20
2023-02-02T07:32:04.493Z,37.20
2023-02-02T07:35:03.000Z,37.20
2023-02-02T07:38:15.187Z,37.20
2023-02-02T07:41:42.953Z,37.30
2023-02-02T07:44:28.604Z,37.30
2023-02-02T07:47:33.290Z,37.20
2023-02-02T07:50:23.795Z,37.30
2023-02-02T07:53:19.224Z,37.30
2023-02-02T07:56:14.818Z,37.30
2023-02-02T07:59:04.760Z,37.30
2023-02-02T08:14:26.871Z,37.40
2023-02-02T08:17:01.875Z,37.40
2023-02-02T08:19:52.763Z,37.40
2023-02-02T08:23:13.439Z,37.40
2023-02-02T08:26:03.746Z,37.40
2023-02-02T08:28:53.016Z,37.70
2023-02-02T08:31:49.886Z,37.50
2023-02-02T08:34:52.479Z,37.50
2023-02-02T08:37:37.384Z,37.40
2023-02-02T08:40:20.857Z,37.40
2023-02-02T08:43:17.164Z,37.40
2023-02-02T08:46:10.169Z,37.40
2023-02-02T08:49:21.097Z,37.40
2023-02-02T08:52:25.614Z,37.40
2023-02-02T08:55:17.273Z,37.40
2023-02-02T08:57:59.900Z,37.40
2023-02-02T09:00:45.678Z,37.40
2023-02-02T09:08:27.260Z,37.50
2023-02-02T09:11:11.411Z,37.40
2023-02-02T09:14:08.415Z,37.40
2023-02-02T09:16:56.448Z,37.30
2023-02-02T09:19:35.497Z,37.40
2023-02-02T09:22:28.845Z,37.40
2023-02-02T09:25:08.140Z,37.40
2023-02-02T09:28:05.940Z,37.30
2023-02-02T09:31:00.012Z,37.30
2023-02-02T09:43:02.877Z,37.30
2023-02-02T10:41:03.857Z,37.60
2023-02-02T10:44:14.385Z,37.60
2023-02-02T10:47:10.008Z,37.50
2023-02-02T10:50:28.182Z,37.60
2023-02-02T10:53:21.881Z,37.60
2023-02-02T10:56:15.418Z,37.50
2023-02-02T10:59:15.294Z,37.50
2023-02-02T11:01:57.079Z,37.40
2023-02-02T11:04:52.746Z,37.40
2023-02-02T11:07:32.756Z,37.30
2023-02-02T11:10:11.877Z,37.30
2023-02-02T11:13:02.029Z,37.30
2023-02-02T11:33:53.515Z,37.00
2023-02-02T11:51:18.239Z,36.90
2023-02-02T11:55:02.697Z,36.70
2023-02-02T13:57:11.068Z,37.70
2023-02-02T14:22:35.030Z,36.90
2023-02-02T15:09:00.705Z,36.80
2023-02-02T15:12:40.099Z,36.80
2023-02-02T15:15:38.206Z,36.80
2023-02-02T15:18:35.325Z,36.90
2023-02-02T15:21:26.802Z,36.80
2023-02-02T15:25:26.652Z,36.90
2023-02-02T15:28:51.234Z,36.90
2023-02-02T15:31:37.590Z,36.80
2023-02-02T15:35:17.548Z,37.40
2023-02-02T15:38:19.439Z,36.80
2023-02-02T15:41:42.100Z,36.80
2023-02-02T15:44:49.500Z,36.80
2023-02-02T15:47:50.061Z,36.80
2023-02-02T15:50:56.108Z,36.70
2023-02-02T15:54:01.427Z,36.70
2023-02-02T15:56:56.145Z,36.60
2023-02-02T15:59:58.508Z,36.60
2023-02-02T16:02:54.285Z,36.60
2023-02-02T16:06:01.694Z,36.50
2023-02-02T16:09:01.717Z,36.50
2023-02-02T16:12:07.747Z,36.50
2023-02-02T16:15:03.155Z,36.40
2023-02-02T16:17:56.323Z,36.50
2023-02-02T16:21:01.839Z,36.40
2023-02-02T16:23:49.568Z,36.40
2023-02-02T16:26:48.516Z,36.40
2023-02-02T16:29:47.497Z,36.30
2023-02-02T16:33:01.933Z,36.30
2023-02-02T16:35:53.421Z,36.30
2023-02-02T16:38:56.003Z,36.30
2023-02-02T16:41:50.058Z,36.30
2023-02-02T16:45:08.053Z,36.20
2023-02-02T16:47:54.727Z,36.20
2023-02-02T16:51:02.114Z,36.20
2023-02-02T16:54:02.132Z,36.20
2023-02-02T16:56:56.715Z,36.20
2023-02-02T17:00:06.513Z,36.20
2023-02-02T17:03:08.213Z,36.20
2023-02-02T17:19:03.002Z,36.00
2023-02-02T17:22:08.395Z,36.00
2023-02-02T17:25:20.427Z,36.00
2023-02-02T17:28:26.461Z,35.90
2023-02-02T17:31:33.156Z,36.00
2023-02-02T17:34:25.213Z,36.00
2023-02-02T17:37:33.131Z,36.00
2023-02-02T17:40:25.377Z,36.00
2023-02-02T17:43:33.204Z,36.00
2023-02-02T17:46:40.060Z,36.10
2023-02-02T17:52:51.274Z,36.10
2023-02-02T17:55:56.695Z,36.10
2023-02-02T17:58:50.719Z,36.10
2023-02-02T18:01:56.764Z,36.00
2023-02-02T18:05:08.777Z,36.00
2023-02-02T18:08:09.415Z,36.00
2023-02-02T18:11:08.826Z,36.00
2023-02-02T18:14:14.549Z,36.00
2023-02-02T18:17:20.883Z,36.00
2023-02-02T18:20:32.917Z,36.00
2023-02-02T18:23:32.937Z,36.00
2023-02-02T18:26:39.003Z,36.10
2023-02-02T18:29:44.992Z,36.00
2023-02-02T18:32:45.042Z,36.00
2023-02-02T18:35:49.333Z,36.00
2023-02-02T18:39:01.670Z,36.00
2023-02-02T18:41:57.118Z,36.00
2023-02-02T18:44:57.753Z,36.00
2023-02-02T18:47:57.776Z,36.00
2023-02-02T18:51:09.201Z,35.90
2023-02-02T18:54:09.231Z,36.00
2023-02-02T18:57:15.258Z,36.10
2023-02-02T19:00:21.283Z,36.10
2023-02-02T19:03:25.973Z,36.10
2023-02-02T19:06:45.344Z,36.00
2023-02-02T19:10:03.379Z,36.00
2023-02-02T19:13:09.398Z,36.00
2023-02-02T19:16:39.429Z,35.90
2023-02-02T19:20:03.459Z,35.90
2023-02-02T20:52:53.560Z,35.90
2023-02-02T21:00:59.645Z,35.90
2023-02-02T21:05:05.657Z,35.80
2023-02-02T21:08:59.690Z,36.50
2023-02-02T21:17:12.867Z,35.90
2023-02-02T21:32:59.884Z,35.80
2023-02-02T22:04:18.131Z,35.80
2023-02-02T22:07:50.487Z,35.90
2023-02-02T22:11:18.186Z,35.80
2023-02-02T22:15:13.721Z,35.80
2023-02-02T22:18:42.244Z,35.80
2023-02-02T22:22:00.279Z,35.90
2023-02-02T22:25:54.268Z,35.80
2023-02-02T22:29:16.847Z,35.80
2023-02-02T22:32:42.358Z,35.90
2023-02-02T22:36:01.952Z,35.80
2023-02-02T22:39:30.412Z,35.90
2023-02-02T22:42:50.597Z,35.80
2023-02-02T22:46:18.525Z,35.80
2023-02-02T22:49:48.503Z,35.90
2023-02-02T22:53:06.534Z,35.90
2023-02-02T22:56:24.737Z,35.90
2023-02-02T22:59:31.382Z,35.90
2023-02-02T23:02:43.299Z,35.90
2023-02-02T23:05:54.656Z,35.90
2023-02-02T23:09:00.689Z,35.90
2023-02-02T23:12:12.715Z,35.90
2023-02-02T23:15:12.744Z,35.90
2023-02-02T23:18:18.765Z,35.90
2023-02-02T23:21:24.795Z,35.90
2023-02-02T23:24:36.813Z,35.90
2023-02-02T23:27:54.864Z,35.90
2023-02-02T23:30:54.952Z,35.90
2023-02-02T23:34:00.889Z,35.90
2023-02-02T23:37:12.915Z,35.80
2023-02-02T23:40:18.953Z,35.80
2023-02-02T23:43:24.965Z,35.90
2023-02-02T23:46:37.065Z,35.90
2023-02-02T23:49:49.017Z,35.90
2023-02-02T23:53:01.034Z,35.90
2023-02-02T23:56:07.009Z,35.90
2023-02-02T23:59:19.089Z,35.90
